sensor_id;sensor_type;location;lat;lon;timestamp;pressure;altitude;pressure_sealevel;temperature;humidity
53340;BME280;46212;50.258;19.062;2022-09-09T00:02:21;98178.44;;;16.54;100.00
53340;BME280;46212;50.258;19.062;2022-09-09T00:07:49;98164.00;;;16.33;100.00
53340;BME280;46212;50.258;19.062;2022-09-09T00:18:05;98158.13;;;16.09;100.00
53340;BME280;46212;50.258;19.062;2022-09-09T00:20:52;98172.31;;;16.16;100.00
53340;BME280;46212;50.258;19.062;2022-09-09T00:23:32;98168.50;;;16.08;100.00
53340;BME280;46212;50.258;19.062;2022-09-09T00:28:53;98161.38;;;16.02;100.00
53340;BME280;46212;50.258;19.062;2022-09-09T00:31:23;98176.59;;;16.12;100.00
53340;BME280;46212;50.258;19.062;2022-09-09T00:33:52;98179.63;;;16.03;100.00
53340;BME280;46212;50.258;19.062;2022-09-09T00:36:22;98171.00;;;15.95;100.00
53340;BME280;46212;50.258;19.062;2022-09-09T00:38:51;98168.72;;;15.88;100.00
53340;BME280;46212;50.258;19.062;2022-09-09T00:41:47;98174.03;;;15.91;100.00
53340;BME280;46212;50.258;19.062;2022-09-09T00:52:52;98180.09;;;15.84;100.00
53340;BME280;46212;50.258;19.062;2022-09-09T00:58:13;98177.50;;;15.70;100.00
53340;BME280;46212;50.258;19.062;2022-09-09T01:00:46;98197.28;;;15.77;100.00
53340;BME280;46212;50.258;19.062;2022-09-09T01:06:22;98191.63;;;15.61;100.00
53340;BME280;46212;50.258;19.062;2022-09-09T01:12:15;98200.97;;;15.58;100.00
53340;BME280;46212;50.258;19.062;2022-09-09T01:20:10;98215.97;;;15.66;100.00
53340;BME280;46212;50.258;19.062;2022-09-09T01:23:16;98217.75;;;15.69;100.00
53340;BME280;46212;50.258;19.062;2022-09-09T01:28:48;98218.78;;;15.71;100.00
53340;BME280;46212;50.258;19.062;2022-09-09T01:31:31;98225.09;;;15.72;100.00
53340;BME280;46212;50.258;19.062;2022-09-09T01:33:58;98225.59;;;15.70;100.00
53340;BME280;46212;50.258;19.062;2022-09-09T01:36:29;98221.78;;;15.68;100.00
53340;BME280;46212;50.258;19.062;2022-09-09T01:38:58;98217.44;;;15.61;100.00
53340;BME280;46212;50.258;19.062;2022-09-09T01:41:24;98219.00;;;15.68;100.00
53340;BME280;46212;50.258;19.062;2022-09-09T01:43:49;98222.78;;;15.65;100.00
53340;BME280;46212;50.258;19.062;2022-09-09T01:46:16;98230.59;;;15.55;100.00
53340;BME280;46212;50.258;19.062;2022-09-09T01:48:42;98213.53;;;15.42;100.00
53340;BME280;46212;50.258;19.062;2022-09-09T01:51:09;98229.75;;;15.43;100.00
53340;BME280;46212;50.258;19.062;2022-09-09T01:53:39;98218.31;;;15.36;100.00
53340;BME280;46212;50.258;19.062;2022-09-09T02:04:36;98232.72;;;15.34;100.00
53340;BME280;46212;50.258;19.062;2022-09-09T02:07:06;98223.09;;;15.35;100.00
53340;BME280;46212;50.258;19.062;2022-09-09T02:09:35;98231.44;;;15.35;100.00
53340;BME280;46212;50.258;19.062;2022-09-09T02:12:21;98232.84;;;15.51;100.00
53340;BME280;46212;50.258;19.062;2022-09-09T02:14:56;98235.91;;;15.59;100.00
53340;BME280;46212;50.258;19.062;2022-09-09T02:17:30;98236.56;;;15.42;100.00
53340;BME280;46212;50.258;19.062;2022-09-09T02:20:03;98217.63;;;15.47;100.00
53340;BME280;46212;50.258;19.062;2022-09-09T02:22:31;98230.28;;;15.48;100.00
53340;BME280;46212;50.258;19.062;2022-09-09T02:24:59;98236.88;;;15.50;100.00
53340;BME280;46212;50.258;19.062;2022-09-09T02:27:25;98243.44;;;15.47;100.00
53340;BME280;46212;50.258;19.062;2022-09-09T02:29:53;98243.91;;;15.46;100.00
53340;BME280;46212;50.258;19.062;2022-09-09T02:32:23;98255.78;;;15.40;100.00
53340;BME280;46212;50.258;19.062;2022-09-09T02:35:03;98252.50;;;15.42;100.00
53340;BME280;46212;50.258;19.062;2022-09-09T02:37:37;98253.22;;;15.37;100.00
53340;BME280;46212;50.258;19.062;2022-09-09T02:40:05;98245.56;;;15.26;100.00
53340;BME280;46212;50.258;19.062;2022-09-09T02:42:31;98256.22;;;15.33;100.00
53340;BME280;46212;50.258;19.062;2022-09-09T02:44:56;98250.59;;;15.22;100.00
53340;BME280;46212;50.258;19.062;2022-09-09T02:47:50;98267.06;;;15.26;100.00
53340;BME280;46212;50.258;19.062;2022-09-09T02:50:35;98267.84;;;15.32;100.00
53340;BME280;46212;50.258;19.062;2022-09-09T02:53:23;98265.22;;;15.17;100.00
53340;BME280;46212;50.258;19.062;2022-09-09T02:56:05;98256.56;;;15.10;100.00
53340;BME280;46212;50.258;19.062;2022-09-09T02:58:34;98274.34;;;15.18;100.00
53340;BME280;46212;50.258;19.062;2022-09-09T03:01:00;98271.75;;;15.09;100.00
53340;BME280;46212;50.258;19.062;2022-09-09T03:03:28;98271.44;;;15.01;100.00
53340;BME280;46212;50.258;19.062;2022-09-09T03:05:54;98261.03;;;14.96;100.00
53340;BME280;46212;50.258;19.062;2022-09-09T03:08:19;98278.75;;;14.99;100.00
53340;BME280;46212;50.258;19.062;2022-09-09T03:10:45;98265.03;;;14.89;100.00
53340;BME280;46212;50.258;19.062;2022-09-09T03:13:10;98268.03;;;14.86;100.00
53340;BME280;46212;50.258;19.062;2022-09-09T03:15:37;98285.72;;;14.88;100.00
53340;BME280;46212;50.258;19.062;2022-09-09T03:18:03;98288.94;;;14.81;100.00
53340;BME280;46212;50.258;19.062;2022-09-09T03:20:29;98288.44;;;14.77;100.00
53340;BME280;46212;50.258;19.062;2022-09-09T03:22:56;98285.66;;;14.77;100.00
53340;BME280;46212;50.258;19.062;2022-09-09T03:25:22;98261.03;;;14.96;100.00
53340;BME280;46212;50.258;19.062;2022-09-09T03:27:51;98280.91;;;14.83;100.00
53340;BME280;46212;50.258;19.062;2022-09-09T03:30:23;98286.38;;;14.78;100.00
53340;BME280;46212;50.258;19.062;2022-09-09T03:32:48;98270.88;;;14.66;100.00
53340;BME280;46212;50.258;19.062;2022-09-09T03:35:14;98295.28;;;14.82;100.00
53340;BME280;46212;50.258;19.062;2022-09-09T03:37:40;98298.88;;;14.62;100.00
53340;BME280;46212;50.258;19.062;2022-09-09T03:40:07;98290.44;;;14.51;100.00
53340;BME280;46212;50.258;19.062;2022-09-09T03:42:35;98302.84;;;14.56;100.00
53340;BME280;46212;50.258;19.062;2022-09-09T03:45:02;98304.81;;;14.50;100.00
53340;BME280;46212;50.258;19.062;2022-09-09T03:47:28;98282.53;;;14.44;100.00
53340;BME280;46212;50.258;19.062;2022-09-09T03:49:54;98290.09;;;14.44;100.00
53340;BME280;46212;50.258;19.062;2022-09-09T03:52:19;98298.47;;;14.49;100.00
53340;BME280;46212;50.258;19.062;2022-09-09T03:54:46;98302.53;;;14.48;100.00
53340;BME280;46212;50.258;19.062;2022-09-09T03:57:13;98306.75;;;14.44;100.00
53340;BME280;46212;50.258;19.062;2022-09-09T03:59:41;98300.19;;;14.41;100.00
53340;BME280;46212;50.258;19.062;2022-09-09T04:02:07;98303.94;;;14.38;100.00
53340;BME280;46212;50.258;19.062;2022-09-09T04:04:32;98303.38;;;14.34;100.00
53340;BME280;46212;50.258;19.062;2022-09-09T04:06:57;98300.25;;;14.26;100.00
53340;BME280;46212;50.258;19.062;2022-09-09T04:09:23;98306.00;;;14.43;100.00
53340;BME280;46212;50.258;19.062;2022-09-09T04:11:48;98308.50;;;14.41;100.00
53340;BME280;46212;50.258;19.062;2022-09-09T04:14:15;98298.22;;;14.27;100.00
53340;BME280;46212;50.258;19.062;2022-09-09T04:16:40;98304.16;;;14.34;100.00
53340;BME280;46212;50.258;19.062;2022-09-09T04:19:10;98310.66;;;14.31;100.00
53340;BME280;46212;50.258;19.062;2022-09-09T04:21:38;98317.44;;;14.30;100.00
53340;BME280;46212;50.258;19.062;2022-09-09T04:24:05;98324.94;;;14.24;100.00
53340;BME280;46212;50.258;19.062;2022-09-09T04:26:30;98320.94;;;14.25;100.00
53340;BME280;46212;50.258;19.062;2022-09-09T04:28:56;98317.44;;;14.30;100.00
53340;BME280;46212;50.258;19.062;2022-09-09T04:31:22;98310.81;;;14.22;100.00
53340;BME280;46212;50.258;19.062;2022-09-09T04:33:51;98319.41;;;14.24;100.00
53340;BME280;46212;50.258;19.062;2022-09-09T04:36:17;98324.69;;;14.22;100.00
53340;BME280;46212;50.258;19.062;2022-09-09T04:38:46;98323.91;;;14.22;100.00
53340;BME280;46212;50.258;19.062;2022-09-09T04:41:11;98329.41;;;14.16;100.00
53340;BME280;46212;50.258;19.062;2022-09-09T04:43:38;98318.31;;;14.16;100.00
53340;BME280;46212;50.258;19.062;2022-09-09T04:46:04;98315.84;;;14.24;100.00
53340;BME280;46212;50.258;19.062;2022-09-09T04:48:29;98314.56;;;14.19;100.00
53340;BME280;46212;50.258;19.062;2022-09-09T04:51:01;98330.81;;;14.26;100.00
53340;BME280;46212;50.258;19.062;2022-09-09T04:53:27;98339.41;;;14.28;100.00
53340;BME280;46212;50.258;19.062;2022-09-09T04:56:01;98321.34;;;14.18;100.00
53340;BME280;46212;50.258;19.062;2022-09-09T04:58:27;98326.75;;;14.27;100.00
53340;BME280;46212;50.258;19.062;2022-09-09T05:00:52;98336.16;;;14.30;100.00
53340;BME280;46212;50.258;19.062;2022-09-09T05:03:17;98323.97;;;14.27;100.00
53340;BME280;46212;50.258;19.062;2022-09-09T05:05:43;98335.66;;;14.31;100.00
53340;BME280;46212;50.258;19.062;2022-09-09T05:08:08;98336.81;;;14.40;100.00
53340;BME280;46212;50.258;19.062;2022-09-09T05:10:37;98344.00;;;14.52;100.00
53340;BME280;46212;50.258;19.062;2022-09-09T05:13:03;98349.63;;;14.57;100.00
53340;BME280;46212;50.258;19.062;2022-09-09T05:15:30;98338.06;;;14.64;100.00
53340;BME280;46212;50.258;19.062;2022-09-09T05:17:59;98327.66;;;14.59;100.00
53340;BME280;46212;50.258;19.062;2022-09-09T05:20:25;98342.66;;;14.67;100.00
53340;BME280;46212;50.258;19.062;2022-09-09T05:22:54;98350.41;;;14.83;100.00
53340;BME280;46212;50.258;19.062;2022-09-09T05:25:20;98336.09;;;14.70;100.00
53340;BME280;46212;50.258;19.062;2022-09-09T05:27:47;98337.41;;;14.75;100.00
53340;BME280;46212;50.258;19.062;2022-09-09T05:30:12;98341.00;;;14.81;100.00
53340;BME280;46212;50.258;19.062;2022-09-09T05:32:38;98339.97;;;14.78;100.00
53340;BME280;46212;50.258;19.062;2022-09-09T05:35:03;98358.22;;;14.85;100.00
53340;BME280;46212;50.258;19.062;2022-09-09T05:37:30;98350.88;;;14.82;100.00
53340;BME280;46212;50.258;19.062;2022-09-09T05:39:56;98344.63;;;14.87;100.00
53340;BME280;46212;50.258;19.062;2022-09-09T05:42:21;98358.34;;;14.96;100.00
53340;BME280;46212;50.258;19.062;2022-09-09T05:44:46;98357.16;;;15.03;100.00
53340;BME280;46212;50.258;19.062;2022-09-09T05:47:12;98352.41;;;15.09;100.00
53340;BME280;46212;50.258;19.062;2022-09-09T05:49:37;98339.97;;;15.04;100.00
53340;BME280;46212;50.258;19.062;2022-09-09T05:52:03;98350.22;;;15.18;100.00
53340;BME280;46212;50.258;19.062;2022-09-09T05:54:29;98349.66;;;15.14;100.00
53340;BME280;46212;50.258;19.062;2022-09-09T05:56:55;98355.06;;;15.23;100.00
53340;BME280;46212;50.258;19.062;2022-09-09T05:59:20;98351.03;;;15.24;100.00
53340;BME280;46212;50.258;19.062;2022-09-09T06:01:46;98353.41;;;15.37;100.00
53340;BME280;46212;50.258;19.062;2022-09-09T06:04:12;98359.81;;;15.49;100.00
53340;BME280;46212;50.258;19.062;2022-09-09T06:06:38;98359.97;;;15.65;100.00
53340;BME280;46212;50.258;19.062;2022-09-09T06:09:06;98360.16;;;15.56;100.00
53340;BME280;46212;50.258;19.062;2022-09-09T06:11:35;98342.13;;;15.52;100.00
53340;BME280;46212;50.258;19.062;2022-09-09T06:14:01;98355.41;;;15.68;100.00
53340;BME280;46212;50.258;19.062;2022-09-09T06:16:28;98356.22;;;15.74;100.00
53340;BME280;46212;50.258;19.062;2022-09-09T06:18:55;98365.91;;;15.84;100.00
53340;BME280;46212;50.258;19.062;2022-09-09T06:21:25;98362.13;;;15.87;100.00
53340;BME280;46212;50.258;19.062;2022-09-09T06:23:51;98360.63;;;15.91;100.00
53340;BME280;46212;50.258;19.062;2022-09-09T06:26:34;98363.44;;;15.97;100.00
53340;BME280;46212;50.258;19.062;2022-09-09T06:29:00;98348.63;;;16.28;100.00
53340;BME280;46212;50.258;19.062;2022-09-09T06:31:29;98350.66;;;16.22;100.00
53340;BME280;46212;50.258;19.062;2022-09-09T06:33:59;98365.03;;;16.68;100.00
53340;BME280;46212;50.258;19.062;2022-09-09T06:36:33;98354.06;;;16.54;100.00
53340;BME280;46212;50.258;19.062;2022-09-09T06:38:59;98365.00;;;16.63;100.00
53340;BME280;46212;50.258;19.062;2022-09-09T06:41:27;98369.56;;;16.60;100.00
53340;BME280;46212;50.258;19.062;2022-09-09T06:43:53;98358.66;;;16.57;100.00
53340;BME280;46212;50.258;19.062;2022-09-09T06:46:28;98364.06;;;16.82;100.00
53340;BME280;46212;50.258;19.062;2022-09-09T06:48:55;98355.44;;;16.86;100.00
53340;BME280;46212;50.258;19.062;2022-09-09T06:51:24;98353.66;;;16.77;100.00
53340;BME280;46212;50.258;19.062;2022-09-09T06:53:52;98367.16;;;17.12;100.00
53340;BME280;46212;50.258;19.062;2022-09-09T06:56:22;98367.94;;;17.40;98.69
53340;BME280;46212;50.258;19.062;2022-09-09T06:58:49;98361.56;;;17.29;94.72
53340;BME280;46212;50.258;19.062;2022-09-09T07:01:19;98362.84;;;17.39;97.11
53340;BME280;46212;50.258;19.062;2022-09-09T07:03:49;98349.41;;;17.43;97.79
53340;BME280;46212;50.258;19.062;2022-09-09T07:06:20;98363.09;;;17.63;94.24
53340;BME280;46212;50.258;19.062;2022-09-09T07:08:51;98361.84;;;17.53;95.78
53340;BME280;46212;50.258;19.062;2022-09-09T07:11:18;98361.56;;;17.51;95.56
53340;BME280;46212;50.258;19.062;2022-09-09T07:13:44;98360.56;;;17.37;96.37
53340;BME280;46212;50.258;19.062;2022-09-09T07:16:14;98356.75;;;17.46;95.75
53340;BME280;46212;50.258;19.062;2022-09-09T07:18:40;98356.22;;;17.47;95.59
53340;BME280;46212;50.258;19.062;2022-09-09T07:21:06;98339.75;;;17.38;94.96
53340;BME280;46212;50.258;19.062;2022-09-09T07:23:32;98354.97;;;17.54;94.60
53340;BME280;46212;50.258;19.062;2022-09-09T07:25:58;98353.22;;;17.57;93.65
53340;BME280;46212;50.258;19.062;2022-09-09T07:28:24;98353.22;;;17.62;94.95
53340;BME280;46212;50.258;19.062;2022-09-09T07:30:57;98345.34;;;17.61;95.29
53340;BME280;46212;50.258;19.062;2022-09-09T07:33:24;98344.56;;;17.71;90.25
53340;BME280;46212;50.258;19.062;2022-09-09T07:35:50;98338.19;;;17.76;87.36
53340;BME280;46212;50.258;19.062;2022-09-09T07:38:16;98348.88;;;17.78;88.96
53340;BME280;46212;50.258;19.062;2022-09-09T07:40:41;98350.41;;;17.79;86.80
53340;BME280;46212;50.258;19.062;2022-09-09T07:43:06;98343.00;;;17.98;85.90
53340;BME280;46212;50.258;19.062;2022-09-09T07:45:33;98328.25;;;17.92;85.13
53340;BME280;46212;50.258;19.062;2022-09-09T07:47:59;98339.66;;;18.05;84.89
53340;BME280;46212;50.258;19.062;2022-09-09T07:50:25;98354.34;;;18.22;85.08
53340;BME280;46212;50.258;19.062;2022-09-09T07:52:51;98359.63;;;18.37;84.60
53340;BME280;46212;50.258;19.062;2022-09-09T07:55:16;98355.03;;;18.39;86.59
53340;BME280;46212;50.258;19.062;2022-09-09T07:57:42;98357.47;;;18.71;86.02
53340;BME280;46212;50.258;19.062;2022-09-09T08:00:07;98364.25;;;18.86;83.82
53340;BME280;46212;50.258;19.062;2022-09-09T08:02:33;98372.69;;;19.16;82.44
53340;BME280;46212;50.258;19.062;2022-09-09T08:04:58;98375.75;;;19.18;80.79
53340;BME280;46212;50.258;19.062;2022-09-09T08:07:24;98379.06;;;19.52;79.46
53340;BME280;46212;50.258;19.062;2022-09-09T08:09:49;98369.19;;;19.75;79.30
53340;BME280;46212;50.258;19.062;2022-09-09T08:12:15;98355.03;;;19.62;78.15
53340;BME280;46212;50.258;19.062;2022-09-09T08:14:40;98374.94;;;19.83;77.43
53340;BME280;46212;50.258;19.062;2022-09-09T08:17:06;98375.91;;;19.91;77.11
53340;BME280;46212;50.258;19.062;2022-09-09T08:19:31;98363.44;;;19.62;76.99
53340;BME280;46212;50.258;19.062;2022-09-09T08:22:01;98371.09;;;19.86;76.35
53340;BME280;46212;50.258;19.062;2022-09-09T08:24:27;98354.13;;;20.02;75.27
53340;BME280;46212;50.258;19.062;2022-09-09T08:26:53;98376.31;;;20.00;76.70
53340;BME280;46212;50.258;19.062;2022-09-09T08:29:18;98376.72;;;20.10;76.84
53340;BME280;46212;50.258;19.062;2022-09-09T08:31:49;98373.28;;;20.23;73.96
53340;BME280;46212;50.258;19.062;2022-09-09T08:34:16;98366.50;;;20.55;70.71
53340;BME280;46212;50.258;19.062;2022-09-09T08:36:44;98377.03;;;21.11;66.20
53340;BME280;46212;50.258;19.062;2022-09-09T08:39:11;98378.97;;;21.16;67.36
53340;BME280;46212;50.258;19.062;2022-09-09T08:41:52;98379.28;;;21.44;65.76
53340;BME280;46212;50.258;19.062;2022-09-09T08:44:31;98380.75;;;21.64;65.72
53340;BME280;46212;50.258;19.062;2022-09-09T08:49:42;98383.59;;;21.77;64.25
53340;BME280;46212;50.258;19.062;2022-09-09T08:55:32;98384.34;;;21.33;66.97
53340;BME280;46212;50.258;19.062;2022-09-09T08:58:13;98377.66;;;21.81;65.16
53340;BME280;46212;50.258;19.062;2022-09-09T09:03:23;98381.66;;;21.85;66.20
53340;BME280;46212;50.258;19.062;2022-09-09T09:06:08;98380.41;;;21.54;66.34
53340;BME280;46212;50.258;19.062;2022-09-09T09:08:46;98388.44;;;21.63;65.12
53340;BME280;46212;50.258;19.062;2022-09-09T09:11:15;98369.00;;;21.65;66.18
53340;BME280;46212;50.258;19.062;2022-09-09T09:14:03;98377.91;;;21.51;64.55
53340;BME280;46212;50.258;19.062;2022-09-09T09:16:46;98379.47;;;21.65;64.69
53340;BME280;46212;50.258;19.062;2022-09-09T09:19:15;98378.50;;;21.62;62.69
53340;BME280;46212;50.258;19.062;2022-09-09T09:21:44;98371.03;;;21.97;63.75
53340;BME280;46212;50.258;19.062;2022-09-09T09:24:22;98374.63;;;21.79;62.73
53340;BME280;46212;50.258;19.062;2022-09-09T09:26:50;98374.00;;;21.86;63.43
53340;BME280;46212;50.258;19.062;2022-09-09T09:29:17;98380.19;;;22.63;63.02
53340;BME280;46212;50.258;19.062;2022-09-09T09:31:55;98371.13;;;23.04;62.38
53340;BME280;46212;50.258;19.062;2022-09-09T09:34:24;98373.91;;;23.17;63.84
53340;BME280;46212;50.258;19.062;2022-09-09T09:36:55;98361.25;;;23.10;60.34
53340;BME280;46212;50.258;19.062;2022-09-09T09:39:27;98379.69;;;22.51;59.93
53340;BME280;46212;50.258;19.062;2022-09-09T09:41:52;98364.84;;;22.51;59.76
53340;BME280;46212;50.258;19.062;2022-09-09T09:44:29;98370.47;;;23.11;60.66
53340;BME280;46212;50.258;19.062;2022-09-09T09:47:14;98375.84;;;23.22;59.27
53340;BME280;46212;50.258;19.062;2022-09-09T09:49:51;98364.28;;;23.46;54.66
53340;BME280;46212;50.258;19.062;2022-09-09T09:52:21;98362.97;;;23.13;52.93
53340;BME280;46212;50.258;19.062;2022-09-09T09:54:47;98366.25;;;23.79;50.90
53340;BME280;46212;50.258;19.062;2022-09-09T09:57:14;98358.75;;;23.82;50.00
53340;BME280;46212;50.258;19.062;2022-09-09T09:59:41;98380.81;;;23.29;53.57
53340;BME280;46212;50.258;19.062;2022-09-09T10:02:22;98375.94;;;22.96;53.18
53340;BME280;46212;50.258;19.062;2022-09-09T10:05:24;98382.47;;;22.77;53.88
53340;BME280;46212;50.258;19.062;2022-09-09T10:08:05;98379.50;;;22.96;54.19
53340;BME280;46212;50.258;19.062;2022-09-09T10:13:15;98373.44;;;23.26;53.36
53340;BME280;46212;50.258;19.062;2022-09-09T10:19:03;98375.88;;;23.84;51.86
53340;BME280;46212;50.258;19.062;2022-09-09T10:21:54;98385.91;;;23.93;52.54
53340;BME280;46212;50.258;19.062;2022-09-09T10:28:06;98381.47;;;23.22;53.24
53340;BME280;46212;50.258;19.062;2022-09-09T10:32:46;98397.09;;;23.23;53.34
53340;BME280;46212;50.258;19.062;2022-09-09T10:56:54;98410.41;;;22.36;53.60
53340;BME280;46212;50.258;19.062;2022-09-09T10:59:29;98404.22;;;22.77;53.99
53340;BME280;46212;50.258;19.062;2022-09-09T11:02:01;98410.28;;;22.81;49.12
53340;BME280;46212;50.258;19.062;2022-09-09T11:04:37;98389.75;;;23.07;50.75
53340;BME280;46212;50.258;19.062;2022-09-09T11:07:11;98408.72;;;23.06;50.09
53340;BME280;46212;50.258;19.062;2022-09-09T11:09:50;98396.53;;;23.24;51.86
53340;BME280;46212;50.258;19.062;2022-09-09T11:12:20;98393.94;;;22.93;51.90
53340;BME280;46212;50.258;19.062;2022-09-09T11:15:26;98404.66;;;23.62;49.09
53340;BME280;46212;50.258;19.062;2022-09-09T11:17:56;98388.78;;;23.38;46.36
53340;BME280;46212;50.258;19.062;2022-09-09T11:20:25;98402.88;;;23.04;48.81
53340;BME280;46212;50.258;19.062;2022-09-09T11:22:52;98400.38;;;23.68;47.99
53340;BME280;46212;50.258;19.062;2022-09-09T11:25:32;98404.06;;;24.05;47.45
53340;BME280;46212;50.258;19.062;2022-09-09T11:28:08;98412.03;;;24.14;45.05
53340;BME280;46212;50.258;19.062;2022-09-09T11:38:45;98401.06;;;24.95;40.63
53340;BME280;46212;50.258;19.062;2022-09-09T11:41:12;98411.53;;;25.30;41.08
53340;BME280;46212;50.258;19.062;2022-09-09T11:43:44;98411.53;;;25.38;42.29
53340;BME280;46212;50.258;19.062;2022-09-09T11:46:12;98405.31;;;25.32;40.95
53340;BME280;46212;50.258;19.062;2022-09-09T11:48:57;98408.03;;;25.75;40.20
53340;BME280;46212;50.258;19.062;2022-09-09T11:53:54;98408.53;;;25.44;40.90
53340;BME280;46212;50.258;19.062;2022-09-09T11:56:45;98402.59;;;26.00;39.59
53340;BME280;46212;50.258;19.062;2022-09-09T11:59:20;98392.75;;;26.16;40.07
53340;BME280;46212;50.258;19.062;2022-09-09T12:01:55;98384.44;;;25.88;40.25
53340;BME280;46212;50.258;19.062;2022-09-09T12:06:55;98403.78;;;25.23;40.26
53340;BME280;46212;50.258;19.062;2022-09-09T12:09:23;98408.09;;;25.24;39.27
53340;BME280;46212;50.258;19.062;2022-09-09T12:11:51;98407.28;;;25.75;40.12
53340;BME280;46212;50.258;19.062;2022-09-09T12:14:36;98411.22;;;25.49;40.55
53340;BME280;46212;50.258;19.062;2022-09-09T12:17:19;98394.66;;;25.68;39.58
53340;BME280;46212;50.258;19.062;2022-09-09T12:19:45;98401.81;;;26.07;40.16
53340;BME280;46212;50.258;19.062;2022-09-09T12:22:30;98410.69;;;26.26;38.23
53340;BME280;46212;50.258;19.062;2022-09-09T12:30:29;98413.50;;;26.34;38.09
53340;BME280;46212;50.258;19.062;2022-09-09T12:33:10;98419.06;;;27.27;37.14
53340;BME280;46212;50.258;19.062;2022-09-09T12:35:35;98419.72;;;27.10;37.66
53340;BME280;46212;50.258;19.062;2022-09-09T12:38:05;98402.63;;;27.25;37.22
53340;BME280;46212;50.258;19.062;2022-09-09T12:40:34;98420.69;;;27.45;38.48
53340;BME280;46212;50.258;19.062;2022-09-09T12:43:20;98404.59;;;27.40;37.08
53340;BME280;46212;50.258;19.062;2022-09-09T12:45:47;98413.34;;;27.91;35.79
53340;BME280;46212;50.258;19.062;2022-09-09T12:48:17;98407.16;;;28.35;35.75
53340;BME280;46212;50.258;19.062;2022-09-09T12:50:51;98397.28;;;28.53;35.42
53340;BME280;46212;50.258;19.062;2022-09-09T12:53:31;98413.47;;;29.29;35.03
53340;BME280;46212;50.258;19.062;2022-09-09T12:56:02;98403.38;;;29.45;33.97
53340;BME280;46212;50.258;19.062;2022-09-09T12:58:30;98404.53;;;29.15;32.55
53340;BME280;46212;50.258;19.062;2022-09-09T13:00:59;98399.31;;;29.21;32.86
53340;BME280;46212;50.258;19.062;2022-09-09T13:03:26;98406.75;;;29.34;32.05
53340;BME280;46212;50.258;19.062;2022-09-09T13:05:53;98399.09;;;29.10;31.27
53340;BME280;46212;50.258;19.062;2022-09-09T13:08:19;98399.31;;;29.38;31.02
53340;BME280;46212;50.258;19.062;2022-09-09T13:10:51;98403.47;;;30.00;30.65
53340;BME280;46212;50.258;19.062;2022-09-09T13:13:29;98385.09;;;29.38;32.42
53340;BME280;46212;50.258;19.062;2022-09-09T13:15:59;98402.09;;;29.56;31.45
53340;BME280;46212;50.258;19.062;2022-09-09T13:18:33;98398.63;;;29.04;31.73
53340;BME280;46212;50.258;19.062;2022-09-09T13:20:59;98392.31;;;27.94;33.18
53340;BME280;46212;50.258;19.062;2022-09-09T13:23:34;98392.31;;;28.19;33.85
53340;BME280;46212;50.258;19.062;2022-09-09T13:26:06;98385.22;;;27.29;35.32
53340;BME280;46212;50.258;19.062;2022-09-09T13:28:43;98383.94;;;26.82;37.65
53340;BME280;46212;50.258;19.062;2022-09-09T13:31:22;98381.69;;;26.81;37.15
53340;BME280;46212;50.258;19.062;2022-09-09T13:33:47;98378.72;;;26.49;37.77
53340;BME280;46212;50.258;19.062;2022-09-09T13:36:13;98378.06;;;26.88;36.21
53340;BME280;46212;50.258;19.062;2022-09-09T13:41:19;98369.13;;;26.36;37.43
53340;BME280;46212;50.258;19.062;2022-09-09T13:43:47;98372.22;;;26.16;38.64
53340;BME280;46212;50.258;19.062;2022-09-09T13:48:58;98368.53;;;26.46;36.36
53340;BME280;46212;50.258;19.062;2022-09-09T13:51:42;98370.66;;;28.07;33.29
53340;BME280;46212;50.258;19.062;2022-09-09T13:54:13;98367.50;;;28.20;33.10
53340;BME280;46212;50.258;19.062;2022-09-09T13:56:39;98366.91;;;27.79;34.42
53340;BME280;46212;50.258;19.062;2022-09-09T13:59:09;98353.66;;;28.58;32.77
53340;BME280;46212;50.258;19.062;2022-09-09T14:01:35;98357.38;;;29.75;31.02
53340;BME280;46212;50.258;19.062;2022-09-09T14:04:02;98352.13;;;31.14;29.05
53340;BME280;46212;50.258;19.062;2022-09-09T14:06:27;98351.59;;;32.59;26.38
53340;BME280;46212;50.258;19.062;2022-09-09T14:08:54;98345.91;;;32.07;27.60
53340;BME280;46212;50.258;19.062;2022-09-09T14:11:20;98347.56;;;33.19;25.13
53340;BME280;46212;50.258;19.062;2022-09-09T14:13:46;98355.94;;;32.18;27.10
53340;BME280;46212;50.258;19.062;2022-09-09T14:16:12;98343.53;;;31.33;28.56
53340;BME280;46212;50.258;19.062;2022-09-09T14:18:37;98343.50;;;29.89;30.51
53340;BME280;46212;50.258;19.062;2022-09-09T14:21:04;98341.91;;;30.15;31.38
53340;BME280;46212;50.258;19.062;2022-09-09T14:23:29;98345.97;;;30.21;30.98
53340;BME280;46212;50.258;19.062;2022-09-09T14:25:55;98340.75;;;29.81;32.00
53340;BME280;46212;50.258;19.062;2022-09-09T14:28:20;98337.72;;;29.07;32.25
53340;BME280;46212;50.258;19.062;2022-09-09T14:30:46;98339.56;;;28.33;33.19
53340;BME280;46212;50.258;19.062;2022-09-09T14:33:14;98328.28;;;28.09;32.24
53340;BME280;46212;50.258;19.062;2022-09-09T14:35:40;98341.13;;;28.61;32.68
53340;BME280;46212;50.258;19.062;2022-09-09T14:38:07;98322.38;;;29.46;31.89
53340;BME280;46212;50.258;19.062;2022-09-09T14:40:34;98324.78;;;28.69;34.36
53340;BME280;46212;50.258;19.062;2022-09-09T14:42:59;98324.59;;;28.33;34.62
53340;BME280;46212;50.258;19.062;2022-09-09T14:45:25;98336.38;;;28.29;33.89
53340;BME280;46212;50.258;19.062;2022-09-09T14:47:51;98335.16;;;27.98;34.27
53340;BME280;46212;50.258;19.062;2022-09-09T14:50:18;98315.16;;;27.47;34.63
53340;BME280;46212;50.258;19.062;2022-09-09T14:52:44;98325.66;;;28.03;34.35
53340;BME280;46212;50.258;19.062;2022-09-09T14:55:09;98324.63;;;26.84;36.24